createdAt,value
2023-03-14T00:02:55.094Z,46.18
2023-03-14T00:05:57.753Z,46.00
2023-03-14T00:09:00.323Z,47.54
2023-03-14T00:12:04.116Z,47.19
2023-03-14T00:15:08.057Z,47.17
2023-03-14T00:18:10.930Z,46.90
2023-03-14T00:21:14.011Z,46.68
2023-03-14T00:24:16.725Z,47.16
2023-03-14T00:27:18.997Z,47.62
2023-03-14T00:30:21.664Z,47.67
2023-03-14T00:33:24.365Z,47.38
2023-03-14T00:36:27.037Z,47.46
2023-03-14T00:39:29.308Z,47.80
2023-03-14T00:42:33.168Z,47.50
2023-03-14T00:45:36.090Z,47.74
2023-03-14T00:48:39.204Z,47.30
2023-03-14T00:51:41.506Z,47.47
2023-03-14T00:54:44.430Z,46.94
2023-03-14T00:57:46.883Z,47.67
2023-03-14T01:00:49.643Z,48.22
2023-03-14T01:03:54.033Z,48.67
2023-03-14T01:06:57.442Z,47.16
2023-03-14T01:09:59.782Z,48.35
2023-03-14T01:13:02.789Z,48.31
2023-03-14T01:16:07.993Z,47.67
2023-03-14T01:19:13.061Z,48.01
2023-03-14T01:22:15.551Z,48.43
2023-03-14T01:25:18.888Z,47.69
2023-03-14T01:28:21.326Z,48.47
2023-03-14T01:31:25.429Z,48.16
2023-03-14T01:34:27.895Z,48.13
2023-03-14T01:37:30.509Z,48.36
2023-03-14T01:40:33.129Z,48.43
2023-03-14T01:43:35.901Z,47.83
2023-03-14T01:46:46.711Z,48.38
2023-03-14T01:49:59.354Z,48.75
2023-03-14T01:53:02.063Z,48.20
2023-03-14T01:56:06.763Z,48.56
2023-03-14T01:59:10.733Z,48.90
2023-03-14T02:02:15.475Z,48.47
2023-03-14T02:05:24.608Z,48.70
2023-03-14T02:08:28.569Z,49.14
2023-03-14T02:11:31.769Z,49.40
2023-03-14T02:14:37.098Z,49.25
2023-03-14T02:17:43.756Z,49.36
2023-03-14T02:21:05.513Z,49.37
2023-03-14T02:24:17.320Z,49.63
2023-03-14T02:27:21.557Z,49.87
2023-03-14T02:30:27.869Z,49.66
2023-03-14T02:33:30.449Z,49.90
2023-03-14T02:36:33.204Z,49.67
2023-03-14T02:39:42.829Z,49.62
2023-03-14T02:42:46.176Z,50.67
2023-03-14T02:45:51.097Z,50.48
2023-03-14T02:49:01.771Z,50.44
2023-03-14T02:52:04.750Z,50.49
2023-03-14T02:55:08.535Z,50.58
2023-03-14T02:58:11.497Z,50.85
2023-03-14T03:01:14.418Z,50.68
2023-03-14T03:04:16.869Z,51.30
2023-03-14T03:07:22.025Z,51.12
2023-03-14T03:10:24.773Z,51.28
2023-03-14T03:13:27.851Z,50.57
2023-03-14T03:16:31.024Z,51.42
2023-03-14T03:19:34.522Z,51.41
2023-03-14T03:22:38.194Z,51.23
2023-03-14T03:25:40.753Z,51.08
2023-03-14T03:28:42.995Z,50.92
2023-03-14T03:31:47.230Z,51.45
2023-03-14T03:34:49.839Z,51.47
2023-03-14T03:37:52.513Z,51.65
2023-03-14T03:40:54.848Z,51.00
2023-03-14T03:44:00.131Z,51.78
2023-03-14T03:47:02.761Z,51.80
2023-03-14T03:50:06.225Z,52.25
2023-03-14T03:53:08.589Z,51.58
2023-03-14T03:56:11.475Z,52.09
2023-03-14T03:59:13.942Z,52.19
2023-03-14T04:02:16.648Z,52.17
2023-03-14T04:05:19.602Z,52.31
2023-03-14T04:08:22.270Z,51.91
2023-03-14T04:11:25.221Z,52.46
2023-03-14T04:14:28.171Z,52.27
2023-03-14T04:17:31.574Z,52.26
2023-03-14T04:20:35.917Z,52.07
2023-03-14T04:23:39.236Z,52.52
2023-03-14T04:26:41.613Z,52.60
2023-03-14T04:29:45.118Z,52.16
2023-03-14T04:32:50.487Z,52.04
2023-03-14T04:35:56.821Z,52.24
2023-03-14T04:39:00.348Z,52.17
2023-03-14T04:42:03.650Z,52.54
2023-03-14T04:45:06.880Z,52.47
2023-03-14T04:48:10.296Z,52.64
2023-03-14T04:51:13.952Z,52.90
2023-03-14T04:54:16.821Z,52.75
2023-03-14T04:57:20.455Z,53.41
2023-03-14T05:00:23.457Z,53.30
2023-03-14T05:03:26.753Z,53.53
2023-03-14T05:06:29.890Z,53.26
2023-03-14T05:09:34.512Z,53.38
2023-03-14T05:12:37.317Z,54.59
2023-03-14T05:15:39.885Z,54.25
2023-03-14T05:18:42.727Z,54.38
2023-03-14T05:21:45.362Z,54.15
2023-03-14T05:24:48.294Z,53.95
2023-03-14T05:27:50.844Z,53.94
2023-03-14T05:30:54.019Z,53.64
2023-03-14T05:33:56.522Z,53.86
2023-03-14T05:37:00.473Z,53.04
2023-03-14T05:40:04.018Z,53.15
2023-03-14T05:43:09.086Z,53.44
2023-03-14T05:46:12.038Z,53.41
2023-03-14T05:49:14.865Z,52.59
2023-03-14T05:52:18.263Z,52.55
2023-03-14T05:55:21.198Z,51.72
2023-03-14T05:58:24.546Z,51.50
2023-03-14T06:01:27.652Z,50.86
2023-03-14T06:04:31.847Z,50.83
2023-03-14T06:07:34.536Z,50.20
2023-03-14T06:10:38.584Z,50.09
2023-03-14T06:13:41.149Z,49.36
2023-03-14T06:16:45.245Z,48.95
2023-03-14T06:19:47.994Z,48.60
2023-03-14T06:22:50.863Z,48.35
2023-03-14T06:25:54.232Z,47.90
2023-03-14T06:29:04.345Z,48.12
2023-03-14T06:32:08.425Z,48.06
2023-03-14T06:35:12.967Z,47.74
2023-03-14T06:38:15.811Z,47.60
2023-03-14T06:41:19.135Z,47.83
2023-03-14T06:44:22.612Z,47.70
2023-03-14T06:47:25.593Z,47.88
2023-03-14T06:50:28.702Z,48.60
2023-03-14T06:53:33.527Z,48.27
2023-03-14T06:56:38.862Z,47.80
2023-03-14T06:59:58.050Z,48.17
2023-03-14T07:03:00.565Z,48.37
2023-03-14T07:06:03.784Z,48.80
2023-03-14T07:09:08.787Z,48.32
2023-03-14T07:12:12.606Z,47.98
2023-03-14T07:15:18.894Z,48.13
2023-03-14T07:18:23.630Z,48.00
2023-03-14T07:21:26.237Z,47.83
2023-03-14T07:24:28.985Z,47.98
2023-03-14T07:27:31.525Z,47.84
2023-03-14T07:30:34.664Z,48.00
2023-03-14T07:33:37.725Z,47.89
2023-03-14T07:36:41.033Z,47.85
2023-03-14T07:39:43.463Z,47.42
2023-03-14T07:42:47.571Z,47.38
2023-03-14T07:45:51.309Z,46.81
2023-03-14T07:48:54.151Z,46.87
2023-03-14T07:55:16.745Z,46.66
2023-03-14T07:58:19.905Z,46.71
2023-03-14T08:01:22.494Z,46.89
2023-03-14T08:04:25.379Z,46.23
2023-03-14T08:07:27.763Z,45.40
2023-03-14T08:10:33.448Z,44.65
2023-03-14T08:13:37.206Z,43.74
2023-03-14T08:16:39.794Z,43.48
2023-03-14T08:19:42.990Z,42.26
2023-03-14T08:22:45.666Z,42.32
2023-03-14T08:25:50.943Z,42.48
2023-03-14T08:28:53.574Z,41.95
2023-03-14T08:31:55.990Z,41.49
2023-03-14T08:34:58.788Z,40.37
2023-03-14T08:38:01.172Z,38.84
2023-03-14T08:41:04.973Z,37.31
2023-03-14T08:44:08.608Z,37.37
2023-03-14T08:47:12.869Z,36.14
2023-03-14T08:50:16.650Z,34.81
2023-03-14T08:53:21.911Z,35.83
2023-03-14T08:56:26.019Z,36.17
2023-03-14T08:59:32.796Z,36.38
2023-03-14T09:02:48.442Z,35.62
2023-03-14T09:05:52.617Z,35.29
2023-03-14T09:08:54.856Z,35.22
2023-03-14T09:12:01.004Z,34.91
2023-03-14T09:15:04.450Z,34.53
2023-03-14T09:18:07.458Z,33.52
2023-03-14T09:21:09.894Z,34.13
2023-03-14T09:24:12.602Z,34.29
2023-03-14T09:27:15.023Z,33.76
2023-03-14T09:30:18.477Z,33.36
2023-03-14T09:33:21.471Z,33.04
2023-03-14T09:36:24.204Z,33.34
2023-03-14T09:39:26.648Z,32.93
2023-03-14T09:42:31.001Z,33.00
2023-03-14T09:45:54.585Z,32.98
2023-03-14T09:49:00.624Z,32.22
2023-03-14T09:52:12.492Z,32.45
2023-03-14T09:55:20.711Z,33.32
2023-03-14T09:58:27.127Z,33.39
2023-03-14T10:01:33.531Z,32.90
2023-03-14T10:04:37.101Z,33.77
2023-03-14T10:07:39.683Z,33.98
2023-03-14T10:10:44.748Z,33.16
2023-03-14T10:14:03.843Z,32.95
2023-03-14T10:19:05.507Z,32.12
2023-03-14T10:21:20.979Z,31.81
2023-03-14T10:24:28.166Z,31.57
2023-03-14T10:27:37.651Z,31.21
2023-03-14T10:30:45.805Z,30.83
2023-03-14T10:34:31.640Z,30.64
2023-03-14T10:37:41.456Z,30.80
2023-03-14T10:40:54.943Z,31.60
2023-03-14T10:43:58.690Z,31.64
2023-03-14T10:47:06.262Z,31.74
2023-03-14T10:50:36.294Z,31.93
2023-03-14T10:53:45.016Z,31.70
2023-03-14T11:00:55.685Z,31.67
2023-03-14T11:04:22.992Z,31.26
2023-03-14T11:07:37.470Z,31.23
2023-03-14T11:10:44.729Z,30.83
2023-03-14T11:14:19.361Z,30.62
2023-03-14T11:21:47.367Z,31.38
2023-03-14T11:29:04.824Z,30.38
2023-03-14T11:32:41.395Z,30.79
2023-03-14T11:36:00.589Z,31.11
2023-03-14T11:39:18.449Z,31.16
2023-03-14T11:50:25.794Z,31.30
2023-03-14T11:53:55.253Z,31.52
2023-03-14T11:57:44.383Z,31.48
2023-03-14T12:01:21.974Z,31.23
2023-03-14T12:04:51.228Z,31.45
2023-03-14T12:08:29.924Z,31.22
2023-03-14T12:15:29.295Z,30.97
2023-03-14T12:18:43.848Z,30.81
2023-03-14T12:22:15.896Z,30.67
2023-03-14T12:25:25.387Z,30.63
2023-03-14T12:28:53.404Z,30.70
2023-03-14T12:36:06.120Z,30.97
2023-03-14T12:39:34.468Z,31.31
2023-03-14T12:43:29.098Z,31.15
2023-03-14T12:46:42.644Z,30.72
2023-03-14T12:49:52.595Z,30.63
2023-03-14T12:53:14.235Z,30.99
2023-03-14T12:56:22.365Z,31.34
2023-03-14T12:59:46.590Z,31.54
2023-03-14T13:02:51.609Z,32.12
2023-03-14T13:05:59.879Z,32.33
2023-03-14T13:09:33.893Z,32.59
2023-03-14T13:12:56.540Z,32.79
2023-03-14T13:16:04.793Z,32.86
2023-03-14T13:19:27.878Z,33.00
2023-03-14T13:22:33.816Z,33.18
2023-03-14T13:25:38.346Z,33.14
2023-03-14T13:28:40.895Z,33.15
2023-03-14T13:31:48.275Z,33.20
2023-03-14T13:34:50.697Z,33.34
2023-03-14T13:38:11.589Z,33.45
2023-03-14T13:41:16.502Z,33.49
2023-03-14T13:44:26.783Z,34.62
2023-03-14T13:47:29.255Z,35.45
2023-03-14T13:50:31.973Z,35.83
2023-03-14T13:53:45.414Z,36.25
2023-03-14T13:56:49.126Z,35.92
2023-03-14T14:00:09.560Z,35.71
2023-03-14T14:03:12.661Z,35.60
2023-03-14T14:06:36.866Z,35.56
2023-03-14T14:09:45.679Z,35.21
2023-03-14T14:12:56.896Z,35.00
2023-03-14T14:16:02.328Z,34.82
2023-03-14T14:19:06.524Z,34.73
2023-03-14T14:22:11.800Z,34.59
2023-03-14T14:25:16.194Z,34.42
2023-03-14T14:28:30.933Z,34.24
2023-03-14T14:31:33.704Z,34.16
2023-03-14T14:35:00.466Z,34.30
2023-03-14T14:38:04.171Z,34.23
2023-03-14T14:41:06.522Z,34.25
2023-03-14T14:44:13.828Z,34.35
2023-03-14T14:47:19.358Z,34.55
2023-03-14T14:50:32.266Z,34.64
2023-03-14T14:53:39.259Z,34.88
2023-03-14T14:56:46.462Z,48.57
2023-03-14T14:59:55.944Z,44.12
2023-03-14T15:03:08.700Z,48.68
2023-03-14T15:06:15.183Z,42.65
2023-03-14T15:09:19.882Z,43.92
2023-03-14T15:12:24.593Z,43.07
2023-03-14T15:15:28.634Z,43.23
2023-03-14T15:18:31.579Z,41.63
2023-03-14T15:21:34.751Z,41.19
2023-03-14T15:24:39.371Z,40.67
2023-03-14T15:27:43.825Z,39.51
2023-03-14T15:30:46.946Z,39.34
2023-03-14T15:33:51.821Z,39.12
2023-03-14T15:36:54.185Z,38.60
2023-03-14T15:39:58.904Z,38.25
2023-03-14T15:43:01.380Z,38.29
2023-03-14T15:46:04.274Z,37.81
2023-03-14T15:49:06.803Z,37.66
2023-03-14T15:52:09.506Z,37.71
2023-03-14T15:55:15.425Z,38.75
2023-03-14T15:58:22.399Z,41.28
2023-03-14T16:01:25.516Z,43.54
2023-03-14T16:04:30.325Z,46.69
2023-03-14T16:07:35.715Z,48.66
2023-03-14T16:10:39.753Z,49.59
2023-03-14T16:13:42.053Z,51.48
2023-03-14T16:16:44.799Z,54.33
2023-03-14T16:19:47.880Z,54.71
2023-03-14T16:22:56.859Z,54.91
2023-03-14T16:26:08.152Z,56.95
2023-03-14T16:29:11.284Z,57.41
2023-03-14T16:32:33.787Z,58.51
2023-03-14T16:35:39.596Z,59.51
2023-03-14T16:38:54.942Z,60.77
2023-03-14T16:42:02.594Z,60.00
2023-03-14T16:45:12.631Z,60.57
2023-03-14T16:48:17.008Z,61.02
2023-03-14T16:51:19.512Z,60.67
2023-03-14T16:54:22.805Z,61.81
2023-03-14T16:57:25.136Z,62.58
2023-03-14T17:00:27.787Z,62.78
2023-03-14T17:03:30.323Z,62.46
2023-03-14T17:06:33.006Z,62.80
2023-03-14T17:09:35.370Z,62.98
2023-03-14T17:12:38.077Z,63.15
2023-03-14T17:15:45.612Z,63.35
2023-03-14T17:18:48.962Z,63.86
2023-03-14T17:21:53.107Z,64.99
2023-03-14T17:25:01.521Z,65.77
2023-03-14T17:28:05.956Z,66.32
2023-03-14T17:31:12.963Z,66.94
2023-03-14T17:34:15.364Z,66.82
2023-03-14T17:37:18.007Z,66.84
2023-03-14T17:40:20.391Z,67.67
2023-03-14T17:43:23.098Z,67.63
2023-03-14T17:46:26.946Z,67.68
2023-03-14T17:49:35.277Z,68.05
2023-03-14T17:52:39.215Z,68.40
2023-03-14T17:55:42.447Z,68.76
2023-03-14T17:58:45.126Z,68.81
2023-03-14T18:01:48.208Z,68.51
2023-03-14T18:04:53.243Z,69.12
2023-03-14T18:07:55.675Z,68.89
2023-03-14T18:10:58.940Z,68.69
2023-03-14T18:14:07.757Z,69.41
2023-03-14T18:17:13.286Z,69.66
2023-03-14T18:20:15.867Z,69.39
2023-03-14T18:23:19.137Z,68.90
2023-03-14T18:26:21.644Z,68.83
2023-03-14T18:29:24.304Z,68.81
2023-03-14T18:32:26.703Z,69.42
2023-03-14T18:35:29.693Z,68.85
2023-03-14T18:38:32.059Z,69.02
2023-03-14T18:41:35.398Z,69.34
2023-03-14T18:44:37.842Z,69.70
2023-03-14T18:47:40.520Z,69.67
2023-03-14T18:50:42.917Z,69.72
2023-03-14T18:53:45.804Z,69.70
2023-03-14T18:56:48.399Z,70.35
2023-03-14T18:59:52.808Z,69.90
2023-03-14T19:02:55.240Z,69.16
2023-03-14T19:05:59.260Z,69.12
2023-03-14T19:09:02.591Z,68.98
2023-03-14T19:12:05.334Z,68.64
2023-03-14T19:15:08.788Z,69.11
2023-03-14T19:18:11.532Z,68.57
2023-03-14T19:21:14.839Z,69.11
2023-03-14T19:24:19.877Z,69.58
2023-03-14T19:27:22.282Z,69.32
2023-03-14T19:30:24.993Z,70.17
2023-03-14T19:33:27.306Z,69.92
2023-03-14T19:36:35.206Z,69.28
2023-03-14T19:39:37.735Z,70.02
2023-03-14T19:42:40.398Z,70.64
2023-03-14T19:45:43.458Z,70.31
2023-03-14T19:48:46.121Z,71.94
2023-03-14T19:51:49.284Z,70.75
2023-03-14T19:54:51.949Z,70.38
2023-03-14T19:57:54.522Z,71.91
2023-03-14T20:00:58.036Z,71.52
2023-03-14T20:04:04.407Z,69.58
2023-03-14T20:07:06.827Z,70.71
2023-03-14T20:10:10.522Z,68.96
2023-03-14T20:13:21.369Z,68.88
2023-03-14T20:16:25.589Z,69.96
2023-03-14T20:19:28.705Z,70.22
2023-03-14T20:22:36.307Z,70.81
2023-03-14T20:25:39.835Z,70.89
2023-03-14T20:28:44.841Z,71.26
2023-03-14T20:31:47.226Z,71.51
2023-03-14T20:34:49.878Z,72.32
2023-03-14T20:37:56.555Z,73.21
2023-03-14T20:41:00.359Z,71.19
2023-03-14T20:44:02.918Z,70.21
2023-03-14T20:47:05.589Z,69.94
2023-03-14T20:50:09.559Z,70.34
2023-03-14T20:53:12.377Z,70.58
2023-03-14T20:56:14.825Z,70.69
2023-03-14T20:59:19.655Z,72.65
2023-03-14T21:02:22.088Z,73.92
2023-03-14T21:05:24.999Z,73.78
2023-03-14T21:08:27.445Z,73.25
2023-03-14T21:11:30.219Z,72.95
2023-03-14T21:14:33.594Z,72.98
2023-03-14T21:17:38.387Z,73.35
2023-03-14T21:20:42.601Z,73.96
2023-03-14T21:23:45.132Z,74.41
2023-03-14T21:26:47.554Z,74.54
2023-03-14T21:29:50.207Z,74.76
2023-03-14T21:32:52.563Z,75.23
2023-03-14T21:35:55.208Z,74.68
2023-03-14T21:38:57.795Z,75.32
2023-03-14T21:42:00.424Z,75.04
2023-03-14T21:45:02.837Z,74.83
2023-03-14T21:48:05.876Z,75.76
2023-03-14T21:51:08.327Z,75.91
2023-03-14T21:54:11.077Z,76.45
2023-03-14T21:57:15.711Z,75.66
2023-03-14T22:00:20.289Z,74.96
2023-03-14T22:03:23.423Z,74.84
2023-03-14T22:06:26.970Z,75.57
2023-03-14T22:09:29.949Z,75.49
2023-03-14T22:12:32.244Z,75.83
2023-03-14T22:15:34.878Z,74.95
2023-03-14T22:18:37.278Z,74.34
2023-03-14T22:21:39.906Z,74.92
2023-03-14T22:24:42.349Z,74.52
2023-03-14T22:27:45.622Z,74.49
2023-03-14T22:30:49.865Z,73.61
2023-03-14T22:33:52.738Z,74.19
2023-03-14T22:36:55.078Z,75.84
2023-03-14T22:39:57.771Z,74.82
2023-03-14T22:43:00.315Z,75.67
2023-03-14T22:46:05.820Z,75.35
2023-03-14T22:49:08.358Z,74.75
2023-03-14T22:52:11.159Z,75.48
2023-03-14T22:55:13.577Z,74.88
2023-03-14T22:58:16.554Z,74.33
2023-03-14T23:01:18.974Z,73.32
2023-03-14T23:04:21.602Z,73.22
2023-03-14T23:07:23.925Z,72.60
2023-03-14T23:10:26.535Z,71.42
2023-03-14T23:13:30.780Z,71.50
2023-03-14T23:16:39.999Z,71.96
2023-03-14T23:19:45.512Z,70.20
2023-03-14T23:22:48.124Z,69.96
2023-03-14T23:25:53.640Z,70.42
2023-03-14T23:28:56.552Z,69.61
2023-03-14T23:31:58.927Z,69.13
2023-03-14T23:35:01.530Z,68.36
2023-03-14T23:38:03.817Z,68.68
2023-03-14T23:41:07.863Z,68.10
2023-03-14T23:44:13.348Z,67.59
2023-03-14T23:47:16.247Z,67.66
2023-03-14T23:50:18.580Z,67.29
2023-03-14T23:53:21.249Z,67.65
2023-03-14T23:56:23.608Z,67.74
2023-03-14T23:59:26.238Z,67.28
